IBE02SJ LEMD-MROC
Flight info
| Callsign | IBE02SJ |
|---|---|
| Flight time | N/A |
| Altitude | 34000 |
| Route | BARDI DCT TUNAV DCT KOMUT/M080F340 DCT 37N020W 35N030W 3130N04000W 26N050W DCT RKDIA DCT DAWIN/N0475F340 DCT MELLA DCT PALAS DCT OROSA UM597 ERIKO DCT TIMRO DCT DAGAS DCT ISEBA CUARE4I |
| Aircraft | A332/H-SDE3GHIJ2J3J5M1RVWXY/LB2D1 |
Departure
| Time | N/A |
|---|---|
| Airport | Adolfo Suárez Madrid–Barajas Airport (LEMD) |
Arrival
| Time | 2026-05-05 16:55 |
|---|---|
| Airport | Juan Santamaría International Airport (MROC) |
| Time | Latitude | Longitude | Altitude | Speed | Heading |
|---|---|---|---|---|---|
| 2026-05-05 14:46 | 17.23731 | -70.19722 | 38061 ft | 457 kts | 246° |
| 2026-05-05 14:46 | 17.22390 | -70.22726 | 38061 ft | 456 kts | 246° |
| 2026-05-05 14:47 | 17.19672 | -70.28738 | 38062 ft | 456 kts | 244° |
| 2026-05-05 14:47 | 17.16504 | -70.34448 | 38058 ft | 457 kts | 240° |
| 2026-05-05 14:48 | 17.13163 | -70.40108 | 38059 ft | 457 kts | 240° |
| 2026-05-05 14:48 | 17.09786 | -70.45752 | 38062 ft | 457 kts | 240° |
| 2026-05-05 14:49 | 17.06416 | -70.51391 | 38061 ft | 457 kts | 240° |
| 2026-05-05 14:49 | 17.03079 | -70.56991 | 38058 ft | 456 kts | 240° |
| 2026-05-05 14:50 | 16.99726 | -70.62619 | 38059 ft | 456 kts | 240° |
| 2026-05-05 14:50 | 16.96371 | -70.68246 | 38057 ft | 456 kts | 240° |
| 2026-05-05 14:51 | 16.93016 | -70.73867 | 38054 ft | 456 kts | 240° |
| 2026-05-05 14:51 | 16.89658 | -70.79491 | 38053 ft | 456 kts | 240° |
| 2026-05-05 14:52 | 16.86302 | -70.85104 | 38053 ft | 456 kts | 240° |
| 2026-05-05 14:52 | 16.82959 | -70.90692 | 38058 ft | 455 kts | 240° |
| 2026-05-05 14:53 | 16.79592 | -70.96315 | 38052 ft | 456 kts | 240° |
| 2026-05-05 14:53 | 16.76222 | -71.01939 | 38050 ft | 457 kts | 240° |
| 2026-05-05 14:54 | 16.72846 | -71.07569 | 38049 ft | 457 kts | 240° |
| 2026-05-05 14:54 | 16.69493 | -71.13155 | 38049 ft | 457 kts | 240° |
| 2026-05-05 14:55 | 16.66115 | -71.18778 | 38046 ft | 457 kts | 240° |
| 2026-05-05 14:55 | 16.62730 | -71.24407 | 38048 ft | 457 kts | 240° |
| 2026-05-05 14:56 | 16.59351 | -71.30025 | 38045 ft | 457 kts | 240° |
| 2026-05-05 14:56 | 16.55990 | -71.35607 | 38045 ft | 457 kts | 240° |
| 2026-05-05 14:57 | 16.52604 | -71.41226 | 38040 ft | 458 kts | 240° |
| 2026-05-05 14:57 | 16.49205 | -71.46863 | 38046 ft | 460 kts | 240° |
| 2026-05-05 14:58 | 16.45814 | -71.52481 | 38038 ft | 461 kts | 240° |
| 2026-05-05 14:58 | 16.42957 | -71.57209 | 38036 ft | 460 kts | 240° |
| 2026-05-05 14:59 | 16.38991 | -71.63769 | 38040 ft | 459 kts | 240° |
| 2026-05-05 14:59 | 16.35587 | -71.69396 | 38034 ft | 459 kts | 240° |
| 2026-05-05 15:00 | 16.32754 | -71.74076 | 38034 ft | 459 kts | 240° |
| 2026-05-05 15:00 | 16.29341 | -71.79709 | 38035 ft | 459 kts | 240° |
| 2026-05-05 15:01 | 16.25935 | -71.85326 | 38037 ft | 459 kts | 240° |
| 2026-05-05 15:01 | 16.22518 | -71.90957 | 38031 ft | 461 kts | 239° |
| 2026-05-05 15:02 | 16.19088 | -71.96606 | 38031 ft | 461 kts | 239° |
| 2026-05-05 15:02 | 16.15659 | -72.02247 | 38031 ft | 461 kts | 239° |
| 2026-05-05 15:03 | 16.12230 | -72.07884 | 38034 ft | 461 kts | 239° |
| 2026-05-05 15:03 | 16.08819 | -72.13487 | 38034 ft | 461 kts | 239° |
| 2026-05-05 15:04 | 16.05398 | -72.19104 | 38034 ft | 461 kts | 239° |
| 2026-05-05 15:04 | 16.01961 | -72.24740 | 38031 ft | 461 kts | 239° |
| 2026-05-05 15:05 | 15.96805 | -72.33190 | 38025 ft | 460 kts | 239° |
| 2026-05-05 15:06 | 15.93392 | -72.38777 | 38025 ft | 461 kts | 239° |
| 2026-05-05 15:06 | 15.89946 | -72.44415 | 38026 ft | 462 kts | 239° |
| 2026-05-05 15:07 | 15.86496 | -72.50053 | 38024 ft | 462 kts | 239° |
| 2026-05-05 15:07 | 15.83041 | -72.55697 | 38024 ft | 462 kts | 239° |
| 2026-05-05 15:08 | 15.79595 | -72.61320 | 38026 ft | 462 kts | 239° |
| 2026-05-05 15:08 | 15.76140 | -72.66955 | 38021 ft | 462 kts | 239° |
| 2026-05-05 15:09 | 15.72719 | -72.72530 | 38021 ft | 462 kts | 239° |
| 2026-05-05 15:09 | 15.69265 | -72.78154 | 38020 ft | 462 kts | 239° |
| 2026-05-05 15:10 | 15.65807 | -72.83782 | 38023 ft | 462 kts | 239° |
| 2026-05-05 15:10 | 15.62345 | -72.89411 | 38010 ft | 463 kts | 239° |
| 2026-05-05 15:11 | 15.58871 | -72.95056 | 38013 ft | 463 kts | 239° |
| 2026-05-05 15:11 | 15.55424 | -73.00651 | 38018 ft | 463 kts | 239° |
| 2026-05-05 15:12 | 15.51950 | -73.06287 | 38025 ft | 463 kts | 239° |
| 2026-05-05 15:12 | 15.48476 | -73.11918 | 38003 ft | 463 kts | 239° |
| 2026-05-05 15:13 | 15.45001 | -73.17547 | 38008 ft | 463 kts | 239° |
| 2026-05-05 15:13 | 15.41520 | -73.23182 | 38017 ft | 463 kts | 239° |
| 2026-05-05 15:14 | 15.38039 | -73.28811 | 38020 ft | 463 kts | 239° |
| 2026-05-05 15:14 | 15.34578 | -73.34406 | 38014 ft | 464 kts | 239° |
| 2026-05-05 15:15 | 15.31087 | -73.40046 | 38014 ft | 466 kts | 239° |
| 2026-05-05 15:15 | 15.27575 | -73.45712 | 38011 ft | 466 kts | 239° |
| 2026-05-05 15:16 | 15.24074 | -73.51358 | 38014 ft | 466 kts | 239° |
| 2026-05-05 15:16 | 15.20588 | -73.56975 | 38013 ft | 466 kts | 239° |
| 2026-05-05 15:17 | 15.17086 | -73.62616 | 38010 ft | 466 kts | 239° |
| 2026-05-05 15:17 | 15.13576 | -73.68263 | 38014 ft | 466 kts | 239° |
| 2026-05-05 15:18 | 15.10066 | -73.73906 | 38016 ft | 466 kts | 239° |
| 2026-05-05 15:18 | 15.06560 | -73.79540 | 38013 ft | 466 kts | 239° |
| 2026-05-05 15:19 | 15.03050 | -73.85177 | 38010 ft | 467 kts | 239° |
| 2026-05-05 15:19 | 14.99519 | -73.90842 | 38008 ft | 468 kts | 239° |
| 2026-05-05 15:20 | 14.95993 | -73.96495 | 38009 ft | 468 kts | 239° |
| 2026-05-05 15:20 | 14.92463 | -74.02150 | 38010 ft | 468 kts | 239° |
| 2026-05-05 15:21 | 14.88954 | -74.07769 | 38011 ft | 468 kts | 239° |
| 2026-05-05 15:21 | 14.85422 | -74.13419 | 38007 ft | 468 kts | 239° |
| 2026-05-05 15:22 | 14.81889 | -74.19066 | 38009 ft | 468 kts | 239° |
| 2026-05-05 15:22 | 14.78351 | -74.24719 | 38004 ft | 468 kts | 239° |
| 2026-05-05 15:23 | 14.74815 | -74.30365 | 38006 ft | 468 kts | 239° |
| 2026-05-05 15:23 | 14.71271 | -74.36017 | 38004 ft | 469 kts | 239° |
| 2026-05-05 15:24 | 14.67738 | -74.41650 | 38001 ft | 470 kts | 239° |
| 2026-05-05 15:24 | 14.64179 | -74.47319 | 38001 ft | 470 kts | 239° |
| 2026-05-05 15:25 | 14.60617 | -74.52989 | 38005 ft | 470 kts | 239° |
| 2026-05-05 15:25 | 14.57057 | -74.58653 | 38003 ft | 470 kts | 239° |
| 2026-05-05 15:26 | 14.53501 | -74.64304 | 37998 ft | 470 kts | 239° |
| 2026-05-05 15:26 | 14.49940 | -74.69961 | 38002 ft | 470 kts | 239° |
| 2026-05-05 15:27 | 14.46372 | -74.75626 | 38001 ft | 470 kts | 239° |
| 2026-05-05 15:27 | 14.42807 | -74.81281 | 38002 ft | 470 kts | 239° |
| 2026-05-05 15:28 | 14.39236 | -74.86942 | 37997 ft | 471 kts | 239° |
| 2026-05-05 15:28 | 14.35678 | -74.92578 | 37998 ft | 472 kts | 239° |
| 2026-05-05 15:29 | 14.32091 | -74.98256 | 37997 ft | 472 kts | 239° |
| 2026-05-05 15:29 | 14.28500 | -75.03936 | 38002 ft | 472 kts | 239° |
| 2026-05-05 15:30 | 14.24933 | -75.09574 | 38001 ft | 472 kts | 239° |
| 2026-05-05 15:30 | 14.21341 | -75.15249 | 38000 ft | 472 kts | 239° |
| 2026-05-05 15:31 | 14.17749 | -75.20919 | 37999 ft | 472 kts | 239° |
| 2026-05-05 15:31 | 14.14153 | -75.26591 | 37999 ft | 472 kts | 239° |
| 2026-05-05 15:32 | 14.10564 | -75.32250 | 37999 ft | 472 kts | 239° |
| 2026-05-05 15:32 | 14.06984 | -75.37890 | 38000 ft | 472 kts | 239° |
| 2026-05-05 15:33 | 14.03391 | -75.43546 | 37996 ft | 472 kts | 239° |
| 2026-05-05 15:33 | 13.99792 | -75.49208 | 37996 ft | 473 kts | 239° |
| 2026-05-05 15:34 | 13.96187 | -75.54875 | 37996 ft | 473 kts | 239° |
| 2026-05-05 15:34 | 13.92596 | -75.60517 | 37990 ft | 473 kts | 239° |
| 2026-05-05 15:35 | 13.88992 | -75.66175 | 37991 ft | 472 kts | 239° |
| 2026-05-05 15:35 | 13.85381 | -75.71841 | 37990 ft | 473 kts | 239° |
| 2026-05-05 15:36 | 13.81770 | -75.77503 | 37990 ft | 473 kts | 239° |
| 2026-05-05 15:36 | 13.78179 | -75.83129 | 37990 ft | 473 kts | 239° |
| 2026-05-05 15:37 | 13.74552 | -75.88809 | 37990 ft | 475 kts | 239° |
| 2026-05-05 15:37 | 13.70917 | -75.94497 | 37994 ft | 476 kts | 239° |
| 2026-05-05 15:38 | 13.67280 | -76.00185 | 37993 ft | 475 kts | 239° |
| 2026-05-05 15:38 | 13.63661 | -76.05840 | 37990 ft | 475 kts | 239° |
| 2026-05-05 15:39 | 13.60021 | -76.11524 | 37990 ft | 475 kts | 239° |
| 2026-05-05 15:39 | 13.56381 | -76.17205 | 37989 ft | 475 kts | 239° |
| 2026-05-05 15:40 | 13.52742 | -76.22880 | 37988 ft | 475 kts | 239° |
| 2026-05-05 15:40 | 13.49104 | -76.28551 | 37985 ft | 475 kts | 239° |
| 2026-05-05 15:41 | 13.45462 | -76.34226 | 37985 ft | 476 kts | 239° |
| 2026-05-05 15:41 | 13.41827 | -76.39884 | 37985 ft | 478 kts | 239° |
| 2026-05-05 15:42 | 13.38160 | -76.45589 | 37979 ft | 478 kts | 239° |
| 2026-05-05 15:42 | 13.34494 | -76.51288 | 37982 ft | 478 kts | 239° |
| 2026-05-05 15:43 | 13.30828 | -76.56982 | 37982 ft | 478 kts | 239° |
| 2026-05-05 15:43 | 13.27154 | -76.62687 | 37979 ft | 478 kts | 239° |
| 2026-05-05 15:44 | 13.23483 | -76.68382 | 37979 ft | 478 kts | 239° |
| 2026-05-05 15:44 | 13.19834 | -76.74041 | 37979 ft | 478 kts | 239° |
| 2026-05-05 15:45 | 13.16159 | -76.79735 | 37979 ft | 478 kts | 239° |
| 2026-05-05 15:45 | 13.12484 | -76.85427 | 37981 ft | 479 kts | 239° |
| 2026-05-05 15:46 | 13.08788 | -76.91148 | 37980 ft | 482 kts | 239° |
| 2026-05-05 15:46 | 13.05089 | -76.96868 | 37975 ft | 484 kts | 238° |
| 2026-05-05 15:47 | 13.01363 | -77.02626 | 37976 ft | 484 kts | 239° |
| 2026-05-05 15:47 | 12.97639 | -77.08377 | 37978 ft | 484 kts | 239° |
| 2026-05-05 15:48 | 12.93918 | -77.14120 | 37973 ft | 484 kts | 239° |
| 2026-05-05 15:48 | 12.90812 | -77.18912 | 37978 ft | 484 kts | 238° |
| 2026-05-05 15:49 | 12.87087 | -77.24656 | 37971 ft | 484 kts | 238° |
| 2026-05-05 15:49 | 12.83357 | -77.30402 | 37976 ft | 483 kts | 238° |
| 2026-05-05 15:50 | 12.79629 | -77.36143 | 37974 ft | 484 kts | 239° |
| 2026-05-05 15:50 | 12.75891 | -77.41895 | 37975 ft | 485 kts | 239° |
| 2026-05-05 15:51 | 12.72176 | -77.47609 | 37970 ft | 485 kts | 239° |
| 2026-05-05 15:51 | 12.68429 | -77.53368 | 37972 ft | 485 kts | 239° |
| 2026-05-05 15:52 | 12.64691 | -77.59108 | 37970 ft | 485 kts | 239° |
| 2026-05-05 15:52 | 12.60942 | -77.64863 | 37966 ft | 485 kts | 238° |
| 2026-05-05 15:53 | 12.57199 | -77.70604 | 37965 ft | 485 kts | 239° |
| 2026-05-05 15:53 | 12.53449 | -77.76354 | 37968 ft | 485 kts | 238° |
| 2026-05-05 15:54 | 12.49725 | -77.82061 | 37965 ft | 484 kts | 238° |
| 2026-05-05 15:54 | 12.45971 | -77.87809 | 37964 ft | 486 kts | 238° |
| 2026-05-05 15:55 | 12.42216 | -77.93556 | 37963 ft | 486 kts | 238° |
| 2026-05-05 15:55 | 12.38451 | -77.99314 | 37966 ft | 486 kts | 238° |
| 2026-05-05 15:56 | 12.34710 | -78.05031 | 37963 ft | 486 kts | 238° |
| 2026-05-05 15:56 | 12.32806 | -78.07941 | 39613 ft | 486 kts | 238° |
| 2026-05-05 15:56 | 12.30945 | -78.10793 | 39558 ft | 488 kts | 237° |
| 2026-05-05 15:56 | 12.29069 | -78.13687 | 39434 ft | 490 kts | 237° |
| 2026-05-05 15:57 | 12.27196 | -78.16596 | 37637 ft | 490 kts | 238° |
| 2026-05-05 15:57 | 12.23416 | -78.22372 | 37889 ft | 487 kts | 238° |
| 2026-05-05 15:58 | 12.19824 | -78.28229 | 37956 ft | 485 kts | 241° |
| 2026-05-05 15:58 | 12.16433 | -78.34149 | 37960 ft | 484 kts | 242° |
| 2026-05-05 15:59 | 12.13057 | -78.40116 | 37958 ft | 485 kts | 242° |
| 2026-05-05 15:59 | 12.09666 | -78.46112 | 37959 ft | 486 kts | 242° |
| 2026-05-05 16:00 | 12.06293 | -78.52062 | 37952 ft | 486 kts | 242° |
| 2026-05-05 16:00 | 12.02898 | -78.58044 | 37955 ft | 486 kts | 242° |
| 2026-05-05 16:01 | 11.99501 | -78.64025 | 37955 ft | 486 kts | 241° |
| 2026-05-05 16:01 | 11.96109 | -78.69993 | 37954 ft | 486 kts | 242° |
| 2026-05-05 16:02 | 11.92735 | -78.75926 | 37951 ft | 485 kts | 241° |
| 2026-05-05 16:02 | 11.89338 | -78.81894 | 37953 ft | 485 kts | 241° |
| 2026-05-05 16:03 | 11.85947 | -78.87851 | 37949 ft | 485 kts | 242° |
| 2026-05-05 16:03 | 11.82550 | -78.93810 | 37951 ft | 485 kts | 242° |
| 2026-05-05 16:04 | 11.79168 | -78.99744 | 37953 ft | 486 kts | 242° |
| 2026-05-05 16:04 | 11.75766 | -79.05707 | 37952 ft | 486 kts | 241° |
| 2026-05-05 16:05 | 11.72362 | -79.11671 | 37955 ft | 486 kts | 241° |
| 2026-05-05 16:05 | 11.68953 | -79.17639 | 37954 ft | 486 kts | 240° |
| 2026-05-05 16:06 | 11.65540 | -79.23610 | 37953 ft | 486 kts | 240° |
| 2026-05-05 16:06 | 11.62132 | -79.29569 | 37952 ft | 486 kts | 241° |
| 2026-05-05 16:07 | 11.58743 | -79.35491 | 37950 ft | 486 kts | 240° |
| 2026-05-05 16:07 | 11.55332 | -79.41449 | 37951 ft | 486 kts | 241° |
| 2026-05-05 16:08 | 11.51919 | -79.47405 | 37952 ft | 484 kts | 240° |
| 2026-05-05 16:08 | 11.48549 | -79.53285 | 37950 ft | 484 kts | 240° |
| 2026-05-05 16:09 | 11.45124 | -79.59257 | 37955 ft | 486 kts | 240° |
| 2026-05-05 16:09 | 11.41728 | -79.65173 | 37954 ft | 487 kts | 240° |
| 2026-05-05 16:10 | 11.38307 | -79.71131 | 37952 ft | 487 kts | 240° |
| 2026-05-05 16:10 | 11.34886 | -79.77085 | 37954 ft | 487 kts | 240° |
| 2026-05-05 16:11 | 11.31465 | -79.83035 | 37957 ft | 486 kts | 240° |
| 2026-05-05 16:12 | 11.24631 | -79.94910 | 37958 ft | 486 kts | 240° |
| 2026-05-05 16:13 | 11.16084 | -80.09743 | 37958 ft | 485 kts | 240° |
| 2026-05-05 16:13 | 11.12681 | -80.15643 | 37953 ft | 486 kts | 240° |
| 2026-05-05 16:14 | 11.05797 | -80.27571 | 37955 ft | 490 kts | 240° |
| 2026-05-05 16:15 | 10.98884 | -80.39531 | 37957 ft | 490 kts | 240° |
| 2026-05-05 16:16 | 10.91969 | -80.51482 | 37960 ft | 490 kts | 240° |
| 2026-05-05 16:17 | 10.86793 | -80.60420 | 37957 ft | 491 kts | 239° |
| 2026-05-05 16:18 | 10.81585 | -80.69404 | 37961 ft | 491 kts | 239° |
| 2026-05-05 16:19 | 10.76369 | -80.78395 | 37960 ft | 491 kts | 239° |
| 2026-05-05 16:19 | 10.71176 | -80.87337 | 37960 ft | 491 kts | 239° |
| 2026-05-05 16:20 | 10.64208 | -80.99325 | 37960 ft | 493 kts | 239° |
| 2026-05-05 16:22 | 10.55490 | -81.14306 | 37961 ft | 493 kts | 239° |
| 2026-05-05 16:23 | 10.48497 | -81.26306 | 37963 ft | 493 kts | 239° |
| 2026-05-05 16:23 | 10.43241 | -81.35317 | 37964 ft | 495 kts | 239° |
| 2026-05-05 16:24 | 10.39725 | -81.41342 | 37963 ft | 497 kts | 239° |
| 2026-05-05 16:25 | 10.34451 | -81.50372 | 37963 ft | 497 kts | 239° |
| 2026-05-05 16:25 | 10.29157 | -81.59431 | 37963 ft | 497 kts | 239° |
| 2026-05-05 16:26 | 10.22098 | -81.71495 | 37966 ft | 497 kts | 239° |
| 2026-05-05 16:27 | 10.18564 | -81.77531 | 37966 ft | 497 kts | 239° |
| 2026-05-05 16:27 | 10.15051 | -81.83527 | 37966 ft | 497 kts | 239° |
| 2026-05-05 16:28 | 10.11511 | -81.89568 | 37963 ft | 497 kts | 239° |
| 2026-05-05 16:28 | 10.07973 | -81.95601 | 37967 ft | 499 kts | 239° |
| 2026-05-05 16:29 | 10.04412 | -82.01667 | 37965 ft | 501 kts | 239° |
| 2026-05-05 16:29 | 10.00839 | -82.07747 | 37966 ft | 501 kts | 239° |
| 2026-05-05 16:30 | 9.97272 | -82.13817 | 37966 ft | 501 kts | 239° |
| 2026-05-05 16:30 | 9.93692 | -82.19908 | 37966 ft | 501 kts | 239° |
| 2026-05-05 16:31 | 9.90150 | -82.25933 | 37966 ft | 501 kts | 239° |
| 2026-05-05 16:31 | 9.86574 | -82.32012 | 37966 ft | 501 kts | 239° |
| 2026-05-05 16:32 | 9.82997 | -82.38088 | 37966 ft | 501 kts | 239° |
| 2026-05-05 16:32 | 9.79424 | -82.44155 | 37964 ft | 499 kts | 239° |
| 2026-05-05 16:33 | 9.75889 | -82.50154 | 37966 ft | 497 kts | 239° |
| 2026-05-05 16:33 | 9.72332 | -82.56188 | 37967 ft | 498 kts | 239° |
| 2026-05-05 16:34 | 9.69374 | -82.61205 | 37968 ft | 499 kts | 239° |
| 2026-05-05 16:34 | 9.65815 | -82.67235 | 37969 ft | 499 kts | 239° |
| 2026-05-05 16:35 | 9.62253 | -82.73269 | 37968 ft | 499 kts | 239° |
| 2026-05-05 16:35 | 9.58702 | -82.79280 | 37759 ft | 491 kts | 239° |
| 2026-05-05 16:36 | 9.57104 | -82.82298 | 37426 ft | 483 kts | 246° |
| 2026-05-05 16:36 | 9.56018 | -82.85504 | 36931 ft | 480 kts | 257° |
| 2026-05-05 16:36 | 9.55529 | -82.88835 | 36335 ft | 479 kts | 267° |
| 2026-05-05 16:36 | 9.55634 | -82.92201 | 35742 ft | 477 kts | 277° |
| 2026-05-05 16:37 | 9.56268 | -82.95501 | 35146 ft | 477 kts | 282° |
| 2026-05-05 16:37 | 9.56804 | -82.98812 | 34862 ft | 477 kts | 279° |
| 2026-05-05 16:37 | 9.57295 | -83.02118 | 34649 ft | 480 kts | 279° |
| 2026-05-05 16:37 | 9.57798 | -83.05467 | 34273 ft | 479 kts | 279° |
| 2026-05-05 16:38 | 9.58220 | -83.08237 | 33654 ft | 480 kts | 279° |
| 2026-05-05 16:38 | 9.58738 | -83.11591 | 32789 ft | 484 kts | 279° |
| 2026-05-05 16:39 | 9.59263 | -83.14971 | 31946 ft | 487 kts | 279° |
| 2026-05-05 16:39 | 9.59794 | -83.18372 | 31108 ft | 490 kts | 280° |
| 2026-05-05 16:39 | 9.60325 | -83.21771 | 30492 ft | 488 kts | 280° |
| 2026-05-05 16:39 | 9.60855 | -83.25163 | 29901 ft | 484 kts | 280° |
| 2026-05-05 16:40 | 9.61374 | -83.28479 | 29267 ft | 480 kts | 280° |
| 2026-05-05 16:40 | 9.61892 | -83.31794 | 28714 ft | 475 kts | 280° |
| 2026-05-05 16:40 | 9.62408 | -83.35101 | 28109 ft | 471 kts | 280° |
| 2026-05-05 16:40 | 9.62919 | -83.38369 | 27518 ft | 467 kts | 280° |
| 2026-05-05 16:41 | 9.63426 | -83.41617 | 26940 ft | 464 kts | 280° |
| 2026-05-05 16:41 | 9.63927 | -83.44828 | 26354 ft | 460 kts | 280° |
| 2026-05-05 16:41 | 9.64425 | -83.48024 | 25791 ft | 457 kts | 280° |
| 2026-05-05 16:41 | 9.64920 | -83.51200 | 25205 ft | 454 kts | 280° |
| 2026-05-05 16:42 | 9.65410 | -83.54350 | 24612 ft | 452 kts | 280° |
| 2026-05-05 16:42 | 9.65892 | -83.57445 | 24046 ft | 449 kts | 280° |
| 2026-05-05 16:42 | 9.66378 | -83.60567 | 23419 ft | 447 kts | 280° |
| 2026-05-05 16:42 | 9.66860 | -83.63672 | 22793 ft | 444 kts | 280° |
| 2026-05-05 16:43 | 9.67336 | -83.66735 | 22214 ft | 439 kts | 279° |
| 2026-05-05 16:43 | 9.67808 | -83.69778 | 21646 ft | 435 kts | 280° |
| 2026-05-05 16:43 | 9.68277 | -83.72792 | 21086 ft | 431 kts | 279° |
| 2026-05-05 16:43 | 9.68739 | -83.75771 | 20522 ft | 427 kts | 279° |
| 2026-05-05 16:44 | 9.69199 | -83.78739 | 19890 ft | 425 kts | 279° |
| 2026-05-05 16:44 | 9.69657 | -83.81694 | 19291 ft | 423 kts | 279° |
| 2026-05-05 16:44 | 9.70113 | -83.84638 | 18740 ft | 420 kts | 279° |
| 2026-05-05 16:44 | 9.70564 | -83.87556 | 18150 ft | 419 kts | 279° |
| 2026-05-05 16:45 | 9.71013 | -83.90462 | 17558 ft | 415 kts | 279° |
| 2026-05-05 16:45 | 9.71457 | -83.93335 | 16973 ft | 410 kts | 278° |
| 2026-05-05 16:45 | 9.71894 | -83.96168 | 16440 ft | 405 kts | 278° |
| 2026-05-05 16:45 | 9.72325 | -83.98962 | 15895 ft | 400 kts | 278° |
| 2026-05-05 16:46 | 9.72749 | -84.01706 | 15367 ft | 395 kts | 278° |
| 2026-05-05 16:46 | 9.73171 | -84.04447 | 14823 ft | 392 kts | 279° |
| 2026-05-05 16:46 | 9.73589 | -84.07161 | 14262 ft | 387 kts | 278° |
| 2026-05-05 16:46 | 9.74003 | -84.09841 | 13673 ft | 385 kts | 278° |
| 2026-05-05 16:47 | 9.74414 | -84.12521 | 13127 ft | 380 kts | 278° |
| 2026-05-05 16:47 | 9.74797 | -84.15153 | 12536 ft | 377 kts | 278° |
| 2026-05-05 16:47 | 9.75177 | -84.17788 | 11907 ft | 375 kts | 278° |
| 2026-05-05 16:47 | 9.75552 | -84.20381 | 11379 ft | 371 kts | 278° |
| 2026-05-05 16:48 | 9.75919 | -84.22967 | 10711 ft | 370 kts | 278° |
| 2026-05-05 16:48 | 9.76281 | -84.25546 | 10211 ft | 364 kts | 278° |
| 2026-05-05 16:48 | 9.76614 | -84.27974 | 9949 ft | 341 kts | 278° |
| 2026-05-05 16:48 | 9.76955 | -84.30268 | 9779 ft | 316 kts | 283° |
| 2026-05-05 16:49 | 9.77821 | -84.32223 | 9515 ft | 295 kts | 305° |
| 2026-05-05 16:49 | 9.79160 | -84.33696 | 9272 ft | 277 kts | 324° |
| 2026-05-05 16:49 | 9.80749 | -84.34743 | 8851 ft | 268 kts | 333° |
| 2026-05-05 16:49 | 9.82402 | -84.35566 | 8413 ft | 261 kts | 336° |
| 2026-05-05 16:50 | 9.84045 | -84.36306 | 7952 ft | 256 kts | 341° |
| 2026-05-05 16:50 | 9.85683 | -84.36932 | 7702 ft | 245 kts | 342° |
| 2026-05-05 16:50 | 9.87260 | -84.37518 | 7396 ft | 236 kts | 343° |
| 2026-05-05 16:50 | 9.88761 | -84.38068 | 7268 ft | 228 kts | 343° |
| 2026-05-05 16:51 | 9.90277 | -84.38426 | 6962 ft | 223 kts | 357° |
| 2026-05-05 16:51 | 9.91779 | -84.38246 | 6620 ft | 217 kts | 28° |
| 2026-05-05 16:51 | 9.92934 | -84.37280 | 6277 ft | 219 kts | 49° |
| 2026-05-05 16:51 | 9.93778 | -84.35957 | 5707 ft | 229 kts | 65° |
| 2026-05-05 16:52 | 9.94329 | -84.34450 | 5377 ft | 226 kts | 71° |
| 2026-05-05 16:52 | 9.94845 | -84.32976 | 5124 ft | 217 kts | 68° |
| 2026-05-05 16:52 | 9.95371 | -84.31599 | 4895 ft | 201 kts | 67° |
| 2026-05-05 16:52 | 9.95849 | -84.30319 | 4620 ft | 186 kts | 68° |
| 2026-05-05 16:53 | 9.96289 | -84.29142 | 4419 ft | 172 kts | 67° |
| 2026-05-05 16:53 | 9.96702 | -84.28049 | 4285 ft | 162 kts | 74° |
| 2026-05-05 16:53 | 9.97089 | -84.27011 | 4041 ft | 155 kts | 70° |
| 2026-05-05 16:53 | 9.97464 | -84.26011 | 3815 ft | 147 kts | 70° |
| 2026-05-05 16:54 | 9.97812 | -84.25084 | 3590 ft | 137 kts | 70° |
| 2026-05-05 16:54 | 9.98164 | -84.24175 | 3474 ft | 140 kts | 68° |
| 2026-05-05 16:54 | 9.98512 | -84.23240 | 3216 ft | 141 kts | 69° |
| 2026-05-05 16:54 | 9.98859 | -84.22323 | 3018 ft | 136 kts | 73° |
| 2026-05-05 16:55 | 9.99164 | -84.21487 | 2989 ft | 101 kts | 70° |
| 2026-05-05 16:55 | 9.99336 | -84.21027 | 3015 ft | 56 kts | 68° |
| 2026-05-05 16:55 | 9.99460 | -84.20688 | 3036 ft | 47 kts | 72° |
| 2026-05-05 16:55 | 9.99560 | -84.20444 | 3043 ft | 6 kts | 38° |
| 2026-05-05 16:56 | 9.99619 | -84.20445 | 3041 ft | 15 kts | 323° |
| 2026-05-05 16:56 | 9.99624 | -84.20533 | 3041 ft | 9 kts | 269° |
| 2026-05-05 16:56 | 9.99628 | -84.20544 | 3041 ft | 1 kts | 298° |
| 2026-05-05 16:56 | 9.99639 | -84.20549 | 3041 ft | 5 kts | 337° |
| 2026-05-05 16:57 | 9.99659 | -84.20551 | 3038 ft | 3 kts | 352° |
| 2026-05-05 16:57 | 9.99675 | -84.20557 | 3038 ft | 0 kts | 342° |
| 2026-05-05 16:57 | 9.99687 | -84.20561 | 3039 ft | 1 kts | 341° |
| 2026-05-05 16:57 | 9.99690 | -84.20562 | 3039 ft | 0 kts | 340° |